Time;durP1;ratioP1;P1;durP2;ratioP2;P2;SDS_P1;SDS_P2;PMS_P1;PMS_P2;Temp;Humidity;BMP_temperature;BMP_pressure;BME280_temperature;BME280_humidity;BME280_pressure;Samples;Min_cycle;Max_cycle;Signal;HPM_P1;HPM_P2
2021/11/12 00:13:04;;;;;;;51.22;23.52;;;;;;;;;;5031676;28;20060;-62
2021/11/12 00:15:33;;;;;;;48.72;24.75;;;;;;;;;;5031996;28;20088;-62
2021/11/12 00:18:01;;;;;;;49.70;24.25;;;;;;;;;;5031876;28;20100;-62
2021/11/12 00:20:28;;;;;;;45.00;23.23;;;;;;;;;;5032134;28;20568;-62
2021/11/12 00:22:55;;;;;;;50.28;25.60;;;;;;;;;;5031585;28;20057;-59
2021/11/12 00:25:23;;;;;;;57.00;24.85;;;;;;;;;;5031540;28;20059;-61
2021/11/12 00:27:50;;;;;;;49.60;25.50;;;;;;;;;;5031908;28;20049;-61
2021/11/12 00:30:27;;;;;;;51.85;24.77;;;;;;;;;;5031619;28;20052;-61
2021/11/12 00:33:03;;;;;;;52.20;24.85;;;;;;;;;;5032075;28;20060;-61
2021/11/12 00:35:36;;;;;;;49.38;23.95;;;;;;;;;;5035611;28;20079;-60
2021/11/12 00:38:09;;;;;;;49.80;26.10;;;;;;;;;;5035047;28;20057;-61
2021/11/12 00:40:47;;;;;;;49.78;23.92;;;;;;;;;;5035162;28;20088;-61
2021/11/12 00:43:26;;;;;;;55.45;26.48;;;;;;;;;;5035370;28;20065;-61
2021/11/12 00:46:00;;;;;;;54.22;27.48;;;;;;;;;;5035160;28;20046;-60
2021/11/12 00:48:31;;;;;;;52.85;25.63;;;;;;;;;;5035128;28;20056;-61
2021/11/12 00:53:52;;;;;;;52.22;24.58;;;;;;;;;;5035038;28;20100;-60
2021/11/12 00:56:23;;;;;;;49.53;22.65;;;;;;;;;;5035089;28;20094;-61
2021/11/12 00:58:50;;;;;;;;;;;;;;;;;;5035645;28;20506;-62
2021/11/12 01:01:18;;;;;;;52.08;24.73;;;;;;;;;;5034971;28;19921;-62
2021/11/12 01:03:46;;;;;;;47.13;24.23;;;;;;;;;;5034636;28;20096;-61
2021/11/12 01:06:13;;;;;;;51.00;24.90;;;;;;;;;;5034649;28;20486;-61
2021/11/12 01:08:40;;;;;;;45.33;22.75;;;;;;;;;;5034618;28;20055;-61
2021/11/12 01:11:07;;;;;;;49.92;24.25;;;;;;;;;;5034522;28;20074;-60
2021/11/12 01:13:36;;;;;;;44.25;22.60;;;;;;;;;;5034692;28;20053;-61
2021/11/12 01:16:04;;;;;;;45.65;21.77;;;;;;;;;;5034511;28;20148;-60
2021/11/12 01:18:34;;;;;;;46.15;22.45;;;;;;;;;;5034714;28;20136;-61
2021/11/12 01:21:01;;;;;;;50.33;24.92;;;;;;;;;;5034731;28;20053;-61
2021/11/12 01:23:28;;;;;;;41.25;21.23;;;;;;;;;;5034186;28;20049;-61
2021/11/12 01:25:55;;;;;;;43.92;21.60;;;;;;;;;;5034547;28;20061;-60
2021/11/12 01:28:22;;;;;;;43.47;21.55;;;;;;;;;;5034302;28;20075;-60
2021/11/12 01:30:50;;;;;;;47.20;23.83;;;;;;;;;;5034243;28;20457;-62
2021/11/12 01:33:17;;;;;;;44.70;22.75;;;;;;;;;;5034135;28;20513;-62
2021/11/12 01:35:44;;;;;;;49.85;22.77;;;;;;;;;;5033804;28;20055;-62
2021/11/12 01:38:11;;;;;;;45.42;22.25;;;;;;;;;;5033955;28;20128;-62
2021/11/12 01:40:38;;;;;;;45.75;23.13;;;;;;;;;;5033846;28;20136;-61
2021/11/12 01:43:10;;;;;;;44.88;21.08;;;;;;;;;;5033813;28;20132;-61
2021/11/12 01:48:56;;;;;;;42.80;20.92;;;;;;;;;;5018228;28;20535;-62
2021/11/12 01:51:28;;;;;;;41.38;21.30;;;;;;;;;;5033709;28;20103;-62
2021/11/12 01:54:08;;;;;;;39.78;19.80;;;;;;;;;;5034306;28;20414;-62
2021/11/12 01:56:40;;;;;;;42.13;21.07;;;;;;;;;;5033490;28;20049;-61
2021/11/12 01:59:11;;;;;;;38.75;19.77;;;;;;;;;;5033932;28;20349;-62
2021/11/12 02:01:41;;;;;;;41.83;21.83;;;;;;;;;;5033730;28;20096;-62
2021/11/12 02:04:11;;;;;;;42.78;21.10;;;;;;;;;;5033327;28;20140;-62
2021/11/12 02:06:39;;;;;;;42.25;21.70;;;;;;;;;;5033467;28;20049;-62
2021/11/12 02:09:12;;;;;;;40.75;20.55;;;;;;;;;;5033442;28;20060;-62
2021/11/12 02:11:39;;;;;;;40.80;21.60;;;;;;;;;;5033543;28;20494;-60
2021/11/12 02:14:07;;;;;;;42.40;20.52;;;;;;;;;;5033128;28;20139;-62
2021/11/12 02:16:38;;;;;;;39.00;20.38;;;;;;;;;;5033158;28;20414;-62
2021/11/12 02:19:05;;;;;;;;;;;;;;;;;;5033664;28;20053;-62
2021/11/12 02:21:38;;;;;;;43.60;21.40;;;;;;;;;;5033033;28;19974;-62
2021/11/12 02:24:08;;;;;;;45.75;22.33;;;;;;;;;;5033399;28;20476;-62
2021/11/12 02:26:39;;;;;;;45.03;22.47;;;;;;;;;;5032960;28;20053;-62
2021/11/12 02:29:08;;;;;;;42.78;21.35;;;;;;;;;;5033014;28;20117;-62
2021/11/12 02:31:36;;;;;;;46.40;22.48;;;;;;;;;;5033213;28;20403;-60
2021/11/12 02:34:06;;;;;;;42.22;22.45;;;;;;;;;;5032930;28;20515;-61
2021/11/12 02:36:35;;;;;;;40.08;19.65;;;;;;;;;;5032953;28;20417;-60
2021/11/12 02:39:04;;;;;;;38.10;19.35;;;;;;;;;;5033003;28;20049;-61
2021/11/12 02:41:32;;;;;;;39.03;19.17;;;;;;;;;;5053035;22;20041;-83
2021/11/12 02:44:00;;;;;;;33.67;18.58;;;;;;;;;;5037605;28;20495;-83
2021/11/12 02:46:28;;;;;;;35.83;18.77;;;;;;;;;;5037144;28;20053;-84
2021/11/12 02:48:56;;;;;;;37.88;19.23;;;;;;;;;;5041768;28;20045;-86
2021/11/12 02:51:27;;;;;;;36.33;18.77;;;;;;;;;;5040085;28;20045;-85
2021/11/12 02:53:56;;;;;;;;;;;;;;;;;;5042239;28;20084;-86
2021/11/12 02:56:27;;;;;;;33.55;18.23;;;;;;;;;;5041313;28;20016;-85
2021/11/12 02:58:55;;;;;;;33.97;17.73;;;;;;;;;;5042577;28;20041;-86
2021/11/12 03:01:24;;;;;;;32.30;17.80;;;;;;;;;;5042768;28;20081;-86
2021/11/12 03:03:52;;;;;;;31.58;17.33;;;;;;;;;;5040535;28;20042;-87
2021/11/12 03:06:21;;;;;;;29.85;17.23;;;;;;;;;;5040365;28;20045;-85
2021/11/12 03:08:49;;;;;;;34.30;18.70;;;;;;;;;;5040024;28;20059;-84
2021/11/12 03:11:19;;;;;;;36.45;19.08;;;;;;;;;;5039244;28;20572;-85
2021/11/12 03:13:47;;;;;;;35.53;18.73;;;;;;;;;;5039524;28;20046;-86
2021/11/12 03:16:15;;;;;;;36.15;19.77;;;;;;;;;;5040781;28;20054;-85
2021/11/12 03:18:43;;;;;;;33.22;17.20;;;;;;;;;;5045747;28;20049;-85
2021/11/12 03:21:14;;;;;;;43.10;21.63;;;;;;;;;;5050332;28;20045;-84
2021/11/12 03:23:46;;;;;;;48.10;22.98;;;;;;;;;;5051808;28;20065;-83
2021/11/12 03:26:27;;;;;;;44.00;21.73;;;;;;;;;;5051504;28;20492;-85
2021/11/12 04:02:02;;;;;;;34.75;18.20;;;;;;;;;;5052427;28;20057;-86
2021/11/12 04:18:13;;;;;;;27.38;16.40;;;;;;;;;;5044469;28;20080;-86
2021/11/12 05:10:26;;;;;;;36.10;18.55;;;;;;;;;;5043603;28;20076;-85
2021/11/12 05:51:37;;;;;;;26.70;15.88;;;;;;;;;;5037992;28;20114;-82
2021/11/12 05:56:55;;;;;;;29.35;16.08;;;;;;;;;;5041994;28;20065;-85
2021/11/12 05:59:23;;;;;;;33.08;17.13;;;;;;;;;;5041791;28;20054;-85
2021/11/12 06:01:51;;;;;;;25.40;15.63;;;;;;;;;;5041928;28;20069;-86
2021/11/12 06:04:19;;;;;;;32.00;16.67;;;;;;;;;;5041039;28;20053;-85
2021/11/12 06:06:49;;;;;;;34.65;19.02;;;;;;;;;;5041532;28;20046;-85
2021/11/12 06:09:19;;;;;;;31.48;18.42;;;;;;;;;;5040512;28;20049;-86
2021/11/12 06:11:51;;;;;;;29.50;16.95;;;;;;;;;;5040578;28;20107;-85
2021/11/12 06:14:19;;;;;;;31.73;18.08;;;;;;;;;;5041512;28;20493;-85
2021/11/12 06:16:46;;;;;;;27.00;16.85;;;;;;;;;;5040077;28;20103;-85
2021/11/12 06:19:13;;;;;;;29.10;16.25;;;;;;;;;;5041325;28;20050;-86
2021/11/12 06:21:40;;;;;;;29.10;16.27;;;;;;;;;;5042925;28;20053;-85
2021/11/12 06:24:08;;;;;;;33.42;18.25;;;;;;;;;;5044712;28;20046;-86
2021/11/12 06:26:35;;;;;;;30.85;16.63;;;;;;;;;;5040896;28;20488;-86
2021/11/12 06:29:02;;;;;;;33.15;17.88;;;;;;;;;;5042639;28;20522;-85
2021/11/12 06:31:33;;;;;;;29.67;17.00;;;;;;;;;;5039446;28;20055;-86
2021/11/12 06:34:00;;;;;;;27.05;15.93;;;;;;;;;;5040937;28;20056;-84
2021/11/12 06:36:28;;;;;;;28.83;16.90;;;;;;;;;;5043818;28;20053;-87
2021/11/12 06:38:56;;;;;;;31.20;17.73;;;;;;;;;;5044846;28;20057;-85
2021/11/12 06:41:54;;;;;;;30.02;16.58;;;;;;;;;;5042270;28;20418;-85
2021/11/12 06:44:54;;;;;;;28.08;16.33;;;;;;;;;;5040840;28;20050;-85
2021/11/12 06:50:12;;;;;;;28.90;15.82;;;;;;;;;;5040111;28;20055;-85
2021/11/12 06:52:41;;;;;;;29.15;16.17;;;;;;;;;;5038312;28;20112;-84
2021/11/12 06:55:10;;;;;;;30.38;17.08;;;;;;;;;;5038973;28;20077;-84
2021/11/12 06:57:37;;;;;;;31.60;17.73;;;;;;;;;;5037256;28;20119;-83
2021/11/12 07:00:06;;;;;;;36.28;19.85;;;;;;;;;;5037132;28;20045;-84
2021/11/12 07:02:35;;;;;;;31.55;17.70;;;;;;;;;;5035617;28;20057;-84
2021/11/12 07:05:02;;;;;;;31.98;18.13;;;;;;;;;;5035831;28;20061;-84
2021/11/12 07:07:29;;;;;;;30.30;16.83;;;;;;;;;;5036402;28;20049;-83
2021/11/12 07:09:57;;;;;;;35.33;18.65;;;;;;;;;;5036291;28;20064;-84
2021/11/12 07:12:24;;;;;;;32.60;17.23;;;;;;;;;;5035946;28;20049;-83
2021/11/12 07:14:51;;;;;;;33.35;16.85;;;;;;;;;;5037804;28;20075;-83
2021/11/12 07:17:18;;;;;;;31.17;16.83;;;;;;;;;;5039178;28;20137;-83
2021/11/12 07:19:46;;;;;;;30.58;17.40;;;;;;;;;;5038043;28;20523;-83
2021/11/12 07:22:15;;;;;;;40.45;20.83;;;;;;;;;;5037926;28;20053;-84
2021/11/12 07:24:42;;;;;;;31.35;18.55;;;;;;;;;;5036564;28;20504;-83
2021/11/12 07:27:13;;;;;;;31.65;18.63;;;;;;;;;;5037041;28;20095;-84
2021/11/12 07:29:43;;;;;;;32.42;16.40;;;;;;;;;;5037803;28;20049;-83
2021/11/12 07:32:12;;;;;;;28.02;16.42;;;;;;;;;;5037322;28;20107;-84
2021/11/12 07:34:40;;;;;;;24.75;15.30;;;;;;;;;;5037679;28;20207;-83
2021/11/12 07:37:10;;;;;;;30.77;16.08;;;;;;;;;;5036682;28;20085;-83
2021/11/12 07:39:48;;;;;;;31.25;16.50;;;;;;;;;;5038052;28;20049;-83
2021/11/12 07:42:22;;;;;;;36.25;19.35;;;;;;;;;;5040174;28;20107;-83
2021/11/12 07:45:08;;;;;;;27.27;15.43;;;;;;;;;;5038355;28;20073;-82
2021/11/12 07:47:35;;;;;;;30.15;16.45;;;;;;;;;;5046475;28;20120;-82
2021/11/12 07:50:06;;;;;;;25.23;14.90;;;;;;;;;;5051187;28;20046;-83
2021/11/12 07:52:38;;;;;;;29.25;15.05;;;;;;;;;;5038187;28;20053;-83
2021/11/12 07:55:06;;;;;;;28.27;15.45;;;;;;;;;;5036876;28;20133;-86
2021/11/12 07:57:34;;;;;;;27.48;15.23;;;;;;;;;;5037351;28;20080;-85
2021/11/12 08:00:01;;;;;;;25.40;14.07;;;;;;;;;;5033754;28;20042;-86
2021/11/12 08:02:28;;;;;;;29.15;14.98;;;;;;;;;;5033857;28;20046;-85
2021/11/12 08:05:02;;;;;;;32.28;17.20;;;;;;;;;;5033510;28;20072;-86
2021/11/12 08:07:32;;;;;;;25.02;14.80;;;;;;;;;;5033731;28;20049;-87
2021/11/12 08:10:03;;;;;;;29.10;15.18;;;;;;;;;;5038841;28;20459;-85
2021/11/12 08:12:33;;;;;;;29.67;14.88;;;;;;;;;;5026300;28;20124;-85
2021/11/12 08:17:49;;;;;;;29.45;15.32;;;;;;;;;;5028649;28;20411;-86
2021/11/12 08:20:22;;;;;;;31.23;17.10;;;;;;;;;;5029650;28;20045;-86
2021/11/12 08:22:58;;;;;;;33.88;16.98;;;;;;;;;;5030647;28;20041;-87
2021/11/12 08:25:45;;;;;;;25.48;13.75;;;;;;;;;;5031264;28;20050;-88
2021/11/12 08:28:41;;;;;;;22.55;13.52;;;;;;;;;;5039436;28;20079;-87
2021/11/12 08:31:23;;;;;;;27.85;14.57;;;;;;;;;;5044489;28;20049;-89
2021/11/12 08:33:53;;;;;;;29.05;14.90;;;;;;;;;;5038295;28;20063;-83
2021/11/12 08:36:50;;;;;;;29.05;13.68;;;;;;;;;;5036363;28;20049;-85
2021/11/12 08:39:44;;;;;;;29.15;15.32;;;;;;;;;;5042270;28;20120;-85
2021/11/12 08:42:17;;;;;;;26.85;14.25;;;;;;;;;;5045876;28;20053;-84
2021/11/12 08:44:47;;;;;;;23.92;13.85;;;;;;;;;;5043845;28;20057;-86
2021/11/12 08:47:16;;;;;;;31.98;14.52;;;;;;;;;;5036652;28;20042;-84
2021/11/12 08:49:45;;;;;;;28.67;14.50;;;;;;;;;;5041140;28;20053;-83
2021/11/12 08:52:15;;;;;;;28.42;15.75;;;;;;;;;;5037787;28;20118;-84
2021/11/12 08:54:46;;;;;;;28.73;15.23;;;;;;;;;;5042567;28;20046;-83
2021/11/12 08:57:16;;;;;;;29.95;15.70;;;;;;;;;;5042102;28;20049;-83
2021/11/12 08:59:44;;;;;;;30.90;15.15;;;;;;;;;;5045057;28;20037;-86
2021/11/12 09:02:19;;;;;;;28.85;14.90;;;;;;;;;;5042234;28;20109;-82
2021/11/12 09:04:47;;;;;;;26.85;14.85;;;;;;;;;;5034075;28;20436;-83
2021/11/12 09:07:16;;;;;;;28.40;15.25;;;;;;;;;;5033693;28;20037;-82
2021/11/12 09:09:44;;;;;;;30.45;15.35;;;;;;;;;;5033769;28;20092;-82
2021/11/12 09:12:13;;;;;;;28.60;15.10;;;;;;;;;;5031701;28;20476;-82
2021/11/12 09:14:46;;;;;;;32.92;16.45;;;;;;;;;;5030055;28;20049;-82
2021/11/12 09:17:13;;;;;;;32.85;15.68;;;;;;;;;;5080252;22;20058;-63
2021/11/12 09:19:47;;;;;;;28.58;14.73;;;;;;;;;;5067897;28;20051;-62
2021/11/12 09:22:16;;;;;;;25.52;13.65;;;;;;;;;;5068368;28;20132;-63
2021/11/12 09:24:43;;;;;;;25.75;13.77;;;;;;;;;;5069409;28;20043;-63
2021/11/12 09:27:12;;;;;;;30.48;13.80;;;;;;;;;;5069710;28;20481;-63
2021/11/12 09:29:39;;;;;;;28.83;14.57;;;;;;;;;;5068285;28;20408;-62
2021/11/12 09:32:09;;;;;;;28.00;14.55;;;;;;;;;;5067995;28;20048;-62
2021/11/12 09:34:37;;;;;;;28.65;14.18;;;;;;;;;;5068070;28;20057;-63
2021/11/12 09:37:06;;;;;;;27.20;14.13;;;;;;;;;;5068411;28;20040;-61
2021/11/12 09:39:34;;;;;;;30.35;15.57;;;;;;;;;;5067682;28;20505;-61
2021/11/12 09:42:03;;;;;;;26.80;13.95;;;;;;;;;;5068147;28;20048;-61
2021/11/12 09:44:30;;;;;;;28.05;14.90;;;;;;;;;;5068183;28;20060;-61
2021/11/12 09:46:57;;;;;;;25.73;13.77;;;;;;;;;;5067955;28;20137;-61
2021/11/12 09:49:26;;;;;;;30.55;15.15;;;;;;;;;;5068196;28;20448;-63
2021/11/12 09:51:53;;;;;;;31.05;15.60;;;;;;;;;;5067822;28;20068;-61
2021/11/12 09:54:21;;;;;;;31.77;15.45;;;;;;;;;;5067758;28;20103;-62
2021/11/12 09:56:48;;;;;;;31.08;15.77;;;;;;;;;;5066614;28;20052;-62
2021/11/12 09:59:15;;;;;;;36.28;16.02;;;;;;;;;;5067469;28;20362;-62
2021/11/12 10:01:42;;;;;;;29.35;15.65;;;;;;;;;;5067247;28;20397;-63
2021/11/12 10:04:10;;;;;;;30.08;14.32;;;;;;;;;;5067264;28;20045;-61
2021/11/12 10:06:41;;;;;;;28.25;13.68;;;;;;;;;;5067118;28;20537;-62
2021/11/12 10:09:14;;;;;;;;;;;;;;;;;;5067112;28;20053;-61
2021/11/12 10:11:49;;;;;;;28.95;14.75;;;;;;;;;;5067512;28;20319;-62
2021/11/12 10:14:24;;;;;;;32.95;17.08;;;;;;;;;;5067437;28;20470;-62
2021/11/12 10:16:57;;;;;;;27.77;15.60;;;;;;;;;;5066919;28;20096;-62
2021/11/12 10:19:25;;;;;;;27.73;14.85;;;;;;;;;;5067127;28;20044;-61
2021/11/12 10:21:56;;;;;;;31.25;16.70;;;;;;;;;;5067838;28;20405;-62
2021/11/12 10:24:26;;;;;;;30.42;15.35;;;;;;;;;;5066670;28;20507;-61
2021/11/12 10:26:56;;;;;;;30.05;14.85;;;;;;;;;;5066669;28;20043;-62
2021/11/12 10:29:24;;;;;;;26.67;13.95;;;;;;;;;;5066990;28;20059;-61
2021/11/12 10:31:53;;;;;;;27.58;14.05;;;;;;;;;;5066728;28;20057;-61
2021/11/12 10:34:22;;;;;;;27.08;13.68;;;;;;;;;;5066692;28;20119;-62
2021/11/12 10:36:57;;;;;;;29.75;15.55;;;;;;;;;;5067156;28;20645;-62
2021/11/12 10:39:29;;;;;;;25.52;14.30;;;;;;;;;;5066780;28;20052;-61
2021/11/12 10:41:57;;;;;;;28.63;14.88;;;;;;;;;;5067287;28;20044;-62
2021/11/12 10:44:25;;;;;;;30.08;15.65;;;;;;;;;;5067194;28;20098;-62
2021/11/12 10:46:52;;;;;;;25.42;14.48;;;;;;;;;;5066736;28;20060;-62
2021/11/12 10:49:33;;;;;;;28.17;15.05;;;;;;;;;;5066675;28;20521;-62
2021/11/12 10:52:05;;;;;;;33.00;16.30;;;;;;;;;;5066610;28;20044;-62
2021/11/12 10:54:45;;;;;;;24.77;13.68;;;;;;;;;;5066827;28;20481;-61
2021/11/12 10:57:13;;;;;;;30.27;15.15;;;;;;;;;;5066208;28;20513;-61
2021/11/12 11:00:12;;;;;;;30.05;17.40;;;;;;;;;;5066698;28;20161;-63
2021/11/12 11:02:42;;;;;;;40.40;20.65;;;;;;;;;;5066320;28;20045;-62
2021/11/12 11:05:11;;;;;;;39.03;20.30;;;;;;;;;;5066334;28;20076;-62
2021/11/12 11:07:40;;;;;;;30.50;15.77;;;;;;;;;;5066646;28;20485;-62
2021/11/12 11:10:21;;;;;;;31.23;17.10;;;;;;;;;;5066333;28;20056;-62
2021/11/12 11:12:49;;;;;;;28.85;14.60;;;;;;;;;;5066798;28;20523;-62
2021/11/12 11:15:23;;;;;;;28.27;15.80;;;;;;;;;;5066133;28;20048;-61
2021/11/12 11:17:51;;;;;;;36.40;15.65;;;;;;;;;;5065091;28;20135;-62
2021/11/12 11:20:22;;;;;;;26.90;15.00;;;;;;;;;;5066336;28;20127;-63
2021/11/12 11:22:56;;;;;;;32.40;15.32;;;;;;;;;;5066949;28;20057;-62
2021/11/12 11:25:24;;;;;;;28.65;14.05;;;;;;;;;;5065963;28;20118;-64
2021/11/12 11:27:52;;;;;;;26.98;14.45;;;;;;;;;;5065820;28;20048;-63
2021/11/12 11:30:19;;;;;;;28.95;15.07;;;;;;;;;;5066090;28;20082;-64
2021/11/12 11:32:46;;;;;;;33.25;16.80;;;;;;;;;;5065806;28;20058;-62
2021/11/12 11:35:14;;;;;;;28.38;14.20;;;;;;;;;;5066121;28;20126;-63
2021/11/12 11:37:43;;;;;;;27.25;14.27;;;;;;;;;;5066207;28;20055;-63
2021/11/12 11:40:16;;;;;;;32.05;15.52;;;;;;;;;;5065929;28;20076;-63
2021/11/12 11:42:44;;;;;;;27.23;15.45;;;;;;;;;;5066245;28;20059;-62
2021/11/12 11:45:12;;;;;;;30.45;15.40;;;;;;;;;;5065926;28;20433;-63
2021/11/12 11:47:42;;;;;;;32.50;16.38;;;;;;;;;;5066210;28;20078;-62
2021/11/12 11:50:25;;;;;;;27.17;14.43;;;;;;;;;;5065952;28;20124;-63
2021/11/12 11:52:52;;;;;;;31.65;16.60;;;;;;;;;;5065585;28;20513;-61
2021/11/12 11:55:34;;;;;;;44.33;21.13;;;;;;;;;;5065750;28;20049;-63
2021/11/12 11:58:30;;;;;;;47.88;22.05;;;;;;;;;;5064759;28;20607;-63
2021/11/12 12:01:27;;;;;;;36.22;19.00;;;;;;;;;;5065727;28;20234;-71
2021/11/12 12:04:30;;;;;;;34.50;15.80;;;;;;;;;;5066443;28;20071;-68
2021/11/12 12:07:25;;;;;;;35.22;18.00;;;;;;;;;;5065941;28;20132;-69
2021/11/12 12:10:02;;;;;;;33.45;17.90;;;;;;;;;;5064447;28;20056;-70
2021/11/12 12:12:58;;;;;;;39.42;18.33;;;;;;;;;;5065605;28;20524;-62
2021/11/12 12:15:49;;;;;;;35.00;17.30;;;;;;;;;;5051628;28;20127;-63
2021/11/12 12:18:22;;;;;;;31.73;15.27;;;;;;;;;;5065676;28;20063;-61
2021/11/12 12:21:31;;;;;;;33.70;14.65;;;;;;;;;;5064718;28;20057;-61
2021/11/12 12:36:01;;;;;;;36.67;16.05;;;;;;;;;;5067842;28;20530;-63
2021/11/12 13:21:33;;;;;;;35.28;16.77;;;;;;;;;;5014931;28;20130;-63
2021/11/12 13:24:15;;;;;;;35.60;16.15;;;;;;;;;;5015930;28;20053;-62
2021/11/12 13:27:03;;;;;;;43.90;17.70;;;;;;;;;;5049224;28;20091;-62
2021/11/12 13:29:31;;;;;;;33.30;15.77;;;;;;;;;;5068095;28;20499;-62
2021/11/12 13:32:00;;;;;;;36.08;17.45;;;;;;;;;;5067582;28;20048;-62
2021/11/12 13:34:28;;;;;;;37.95;16.27;;;;;;;;;;5068277;28;20041;-62
2021/11/12 13:36:57;;;;;;;37.72;16.40;;;;;;;;;;5068030;28;20704;-63
2021/11/12 13:39:24;;;;;;;35.78;16.83;;;;;;;;;;5067857;28;20127;-62
2021/11/12 13:41:55;;;;;;;31.00;15.20;;;;;;;;;;5068261;28;20078;-62
2021/11/12 13:44:23;;;;;;;;;;;;;;;;;;5068310;28;20053;-62
2021/11/12 13:46:53;;;;;;;33.53;15.20;;;;;;;;;;5067927;28;19971;-62
2021/11/12 13:49:30;;;;;;;33.25;15.45;;;;;;;;;;5068259;28;20045;-65
2021/11/12 13:52:03;;;;;;;36.47;15.48;;;;;;;;;;5067439;28;20048;-61
2021/11/12 13:54:32;;;;;;;34.17;15.82;;;;;;;;;;5067798;28;20055;-62
2021/11/12 13:57:07;;;;;;;34.88;15.68;;;;;;;;;;5067664;28;20406;-61
2021/11/12 13:59:34;;;;;;;41.65;18.92;;;;;;;;;;5067614;28;20043;-61
2021/11/12 14:02:03;;;;;;;43.78;19.15;;;;;;;;;;5067748;28;20056;-62
2021/11/12 14:04:32;;;;;;;33.10;15.82;;;;;;;;;;5068200;28;20796;-62
2021/11/12 14:07:01;;;;;;;72.25;27.58;;;;;;;;;;5068204;28;20414;-62
2021/11/12 14:09:34;;;;;;;59.00;26.38;;;;;;;;;;5067504;28;20110;-62
2021/11/12 14:12:11;;;;;;;37.13;19.30;;;;;;;;;;5067434;28;20051;-62
2021/11/12 14:14:40;;;;;;;45.00;19.55;;;;;;;;;;5066213;28;20045;-62
2021/11/12 14:17:20;;;;;;;40.92;17.42;;;;;;;;;;5067034;28;20056;-62
2021/11/12 14:20:06;;;;;;;40.05;18.15;;;;;;;;;;5067664;28;20115;-62
2021/11/12 14:25:32;;;;;;;40.83;18.95;;;;;;;;;;5063701;28;20055;-61
2021/11/12 14:28:06;;;;;;;37.97;16.77;;;;;;;;;;5066934;28;20084;-62
2021/11/12 14:31:02;;;;;;;35.05;15.00;;;;;;;;;;5066522;28;20556;-61
2021/11/12 14:33:34;;;;;;;45.80;18.40;;;;;;;;;;5066477;28;20071;-62
2021/11/12 14:36:20;;;;;;;37.75;17.05;;;;;;;;;;5066349;28;20094;-68
2021/11/12 14:39:02;;;;;;;40.72;17.85;;;;;;;;;;5067086;28;20067;-64
2021/11/12 14:41:49;;;;;;;36.90;17.67;;;;;;;;;;5066879;28;20092;-63
2021/11/12 14:47:21;;;;;;;41.15;17.42;;;;;;;;;;5024414;28;20054;-66
2021/11/12 14:49:59;;;;;;;37.65;16.55;;;;;;;;;;5024447;28;20049;-66
2021/11/12 14:52:28;;;;;;;30.70;14.05;;;;;;;;;;5038577;28;20048;-67
2021/11/12 14:55:06;;;;;;;38.28;15.98;;;;;;;;;;5065660;28;20057;-65
2021/11/12 14:57:35;;;;;;;36.53;16.65;;;;;;;;;;5066201;28;20051;-62
2021/11/12 15:00:09;;;;;;;41.40;16.23;;;;;;;;;;5066595;28;20056;-63
2021/11/12 15:02:37;;;;;;;37.97;16.17;;;;;;;;;;5067287;28;20128;-64
2021/11/12 15:05:04;;;;;;;33.50;14.50;;;;;;;;;;5066864;28;20139;-63
2021/11/12 15:07:36;;;;;;;38.05;16.17;;;;;;;;;;5065739;28;20604;-62
2021/11/12 15:10:10;;;;;;;37.83;16.45;;;;;;;;;;5065972;28;20051;-63
2021/11/12 15:12:37;;;;;;;33.38;14.95;;;;;;;;;;5066440;28;20048;-63
2021/11/12 15:15:06;;;;;;;45.38;18.55;;;;;;;;;;5066115;28;20098;-62
2021/11/12 15:17:33;;;;;;;35.30;14.70;;;;;;;;;;5078636;22;20147;-65
2021/11/12 15:20:02;;;;;;;38.92;18.50;;;;;;;;;;5067405;28;20044;-64
2021/11/12 15:22:42;;;;;;;39.72;17.17;;;;;;;;;;5067828;28;20052;-66
2021/11/12 15:25:18;;;;;;;38.90;17.08;;;;;;;;;;5066539;28;20147;-65
2021/11/12 15:27:58;;;;;;;38.08;17.15;;;;;;;;;;5066945;28;20473;-65
2021/11/12 15:30:27;;;;;;;38.67;16.15;;;;;;;;;;5066778;28;20059;-64
2021/11/12 15:32:56;;;;;;;39.88;16.48;;;;;;;;;;5067129;28;20048;-65
2021/11/12 15:35:25;;;;;;;35.80;15.93;;;;;;;;;;5066724;28;20139;-65
2021/11/12 15:37:58;;;;;;;32.92;14.57;;;;;;;;;;5067725;28;20117;-64
2021/11/12 15:40:29;;;;;;;32.70;14.93;;;;;;;;;;5066976;28;20497;-66
2021/11/12 15:45:53;;;;;;;34.90;14.02;;;;;;;;;;5067567;28;20558;-66
2021/11/12 15:48:22;;;;;;;35.00;14.60;;;;;;;;;;5067084;28;20131;-66
2021/11/12 15:51:09;;;;;;;38.85;16.05;;;;;;;;;;5067185;28;20544;-66
2021/11/12 15:53:41;;;;;;;32.03;14.82;;;;;;;;;;5066303;28;20044;-65
2021/11/12 15:59:02;;;;;;;34.35;15.25;;;;;;;;;;5026036;28;20056;-65
2021/11/12 16:09:50;;;;;;;34.10;15.60;;;;;;;;;;5071902;28;20450;-64
2021/11/12 16:12:29;;;;;;;42.10;17.23;;;;;;;;;;5070690;28;20048;-65
2021/11/12 16:15:05;;;;;;;37.05;17.25;;;;;;;;;;5071355;28;20447;-66
2021/11/12 16:17:43;;;;;;;38.33;16.80;;;;;;;;;;5070648;28;20051;-65
2021/11/12 16:25:38;;;;;;;33.03;14.95;;;;;;;;;;5069459;28;20075;-66
2021/11/12 16:28:09;;;;;;;63.45;25.45;;;;;;;;;;5070829;28;20086;-66
2021/11/12 16:30:37;;;;;;;49.13;20.42;;;;;;;;;;5070694;28;20150;-65
2021/11/12 16:33:07;;;;;;;35.28;16.83;;;;;;;;;;5070805;28;20064;-66
2021/11/12 16:35:36;;;;;;;39.08;17.58;;;;;;;;;;5070399;28;20060;-66
2021/11/12 16:38:11;;;;;;;44.90;18.05;;;;;;;;;;5070253;28;20052;-64
2021/11/12 16:40:40;;;;;;;39.90;18.55;;;;;;;;;;5070317;28;20048;-64
2021/11/12 16:43:25;;;;;;;40.60;18.02;;;;;;;;;;5070315;28;20064;-65
2021/11/12 16:46:03;;;;;;;42.35;17.23;;;;;;;;;;5070720;28;20138;-67
2021/11/12 16:48:42;;;;;;;41.88;17.98;;;;;;;;;;5070883;28;20020;-64
2021/11/12 16:54:15;;;;;;;41.97;16.73;;;;;;;;;;5065913;28;20623;-64
2021/11/12 16:57:13;;;;;;;37.28;17.58;;;;;;;;;;5069450;28;20077;-64
2021/11/12 16:59:49;;;;;;;54.08;23.50;;;;;;;;;;5070194;28;20064;-65
2021/11/12 17:02:26;;;;;;;49.30;22.48;;;;;;;;;;5069906;28;20056;-65
2021/11/12 17:05:00;;;;;;;41.10;17.83;;;;;;;;;;5069843;28;20044;-66
2021/11/12 17:07:39;;;;;;;50.58;19.45;;;;;;;;;;5070181;28;20428;-66
2021/11/12 17:10:14;;;;;;;41.38;18.33;;;;;;;;;;5069772;28;20048;-64
2021/11/12 17:18:23;;;;;;;32.70;14.60;;;;;;;;;;5069289;28;20056;-66
2021/11/12 17:48:32;;;;;;;36.60;16.70;;;;;;;;;;5067689;28;20055;-66
2021/11/12 17:51:14;;;;;;;39.20;18.38;;;;;;;;;;5068206;28;20052;-65
2021/11/12 18:02:05;;;;;;;32.50;14.70;;;;;;;;;;5067687;28;20092;-66
2021/11/12 18:04:44;;;;;;;35.45;15.82;;;;;;;;;;5067755;28;20048;-66
2021/11/12 18:07:27;;;;;;;36.88;17.98;;;;;;;;;;5067274;28;20090;-64
2021/11/12 21:46:09;;;;;;;45.90;19.80;;;;;;;;;;5057707;28;20045;-83
2021/11/12 21:48:39;;;;;;;49.90;21.08;;;;;;;;;;5058363;28;20037;-83
2021/11/12 21:51:10;;;;;;;50.15;21.13;;;;;;;;;;5053902;28;20105;-82
2021/11/12 21:53:39;;;;;;;47.30;21.80;;;;;;;;;;5054779;28;20397;-82
2021/11/12 21:56:06;;;;;;;53.00;22.38;;;;;;;;;;5058671;28;20060;-82
2021/11/12 21:58:34;;;;;;;53.40;20.58;;;;;;;;;;5057756;28;20051;-83
2021/11/12 22:01:04;;;;;;;50.05;20.30;;;;;;;;;;5057515;28;20607;-82
2021/11/12 22:03:31;;;;;;;61.72;23.20;;;;;;;;;;5057772;28;20064;-83
2021/11/12 22:06:00;;;;;;;55.20;23.40;;;;;;;;;;5056592;28;20053;-83
2021/11/12 22:08:29;;;;;;;51.55;21.65;;;;;;;;;;5057861;28;20048;-82
2021/11/12 22:10:57;;;;;;;53.17;22.75;;;;;;;;;;5058424;28;20040;-81
2021/11/12 22:13:24;;;;;;;49.53;20.70;;;;;;;;;;5057189;28;20053;-82
2021/11/12 22:15:51;;;;;;;49.38;20.98;;;;;;;;;;5055616;28;20049;-82
2021/11/12 22:18:18;;;;;;;43.70;20.75;;;;;;;;;;5056319;28;20057;-82
2021/11/12 22:20:46;;;;;;;47.45;19.92;;;;;;;;;;5055781;28;20741;-82
2021/11/12 22:23:13;;;;;;;47.05;21.02;;;;;;;;;;5055209;28;20045;-82
2021/11/12 22:25:42;;;;;;;50.42;20.70;;;;;;;;;;5055696;28;20057;-82
2021/11/12 22:28:08;;;;;;;47.15;19.63;;;;;;;;;;5055505;28;20175;-81
2021/11/12 22:30:37;;;;;;;47.75;21.77;;;;;;;;;;5055475;28;20770;-83
2021/11/12 22:33:07;;;;;;;48.33;20.05;;;;;;;;;;5054843;28;20045;-83
2021/11/12 22:35:36;;;;;;;47.40;20.90;;;;;;;;;;5061842;28;20045;-83
2021/11/12 22:38:03;;;;;;;48.10;20.80;;;;;;;;;;5064840;28;20080;-83
2021/11/12 22:40:31;;;;;;;53.65;21.30;;;;;;;;;;5058377;28;20104;-83
2021/11/12 22:42:59;;;;;;;48.38;20.65;;;;;;;;;;5055245;28;20056;-80
2021/11/12 22:45:26;;;;;;;44.80;19.50;;;;;;;;;;5052988;28;20044;-81
2021/11/12 22:47:53;;;;;;;45.42;20.05;;;;;;;;;;5054106;28;20106;-81
2021/11/12 22:50:21;;;;;;;46.45;19.63;;;;;;;;;;5053834;28;20053;-81
2021/11/12 22:52:49;;;;;;;41.78;18.77;;;;;;;;;;5054547;28;20062;-81
2021/11/12 22:55:16;;;;;;;44.60;17.70;;;;;;;;;;5053349;28;20063;-81
2021/11/12 22:57:45;;;;;;;45.28;18.42;;;;;;;;;;5052883;28;20044;-81
2021/11/12 23:00:27;;;;;;;46.88;20.25;;;;;;;;;;5052840;28;20059;-82
2021/11/12 23:02:55;;;;;;;58.70;26.10;;;;;;;;;;5050441;28;20041;-83
2021/11/12 23:05:23;;;;;;;54.10;24.17;;;;;;;;;;5049141;28;20061;-82
2021/11/12 23:07:50;;;;;;;45.95;20.02;;;;;;;;;;5050157;28;20102;-82